sensor_id;sensor_type;location;lat;lon;timestamp;P1;durP1;ratioP1;P2;durP2;ratioP2
20739;SDS011;10530;49.968;19.844;2023-04-25T00:03:25;7.45;;;3.03;;
20739;SDS011;10530;49.968;19.844;2023-04-25T00:08:29;7.55;;;3.28;;
20739;SDS011;10530;49.968;19.844;2023-04-25T00:13:32;9.57;;;4.15;;
20739;SDS011;10530;49.968;19.844;2023-04-25T00:18:36;7.97;;;3.57;;
20739;SDS011;10530;49.968;19.844;2023-04-25T00:23:39;10.25;;;3.63;;
20739;SDS011;10530;49.968;19.844;2023-04-25T00:28:42;6.25;;;2.92;;
20739;SDS011;10530;49.968;19.844;2023-04-25T00:33:45;6.80;;;2.65;;
20739;SDS011;10530;49.968;19.844;2023-04-25T00:38:47;6.68;;;2.40;;
20739;SDS011;10530;49.968;19.844;2023-04-25T00:43:50;5.93;;;2.00;;
20739;SDS011;10530;49.968;19.844;2023-04-25T00:48:54;7.93;;;2.83;;
20739;SDS011;10530;49.968;19.844;2023-04-25T00:53:57;7.95;;;3.35;;
20739;SDS011;10530;49.968;19.844;2023-04-25T00:59:00;8.38;;;3.45;;
20739;SDS011;10530;49.968;19.844;2023-04-25T01:04:03;10.52;;;4.10;;
20739;SDS011;10530;49.968;19.844;2023-04-25T01:09:06;12.43;;;3.27;;
20739;SDS011;10530;49.968;19.844;2023-04-25T01:14:09;12.00;;;4.32;;
20739;SDS011;10530;49.968;19.844;2023-04-25T01:19:12;9.65;;;3.83;;
20739;SDS011;10530;49.968;19.844;2023-04-25T01:24:20;13.02;;;5.05;;
20739;SDS011;10530;49.968;19.844;2023-04-25T01:29:24;13.85;;;5.63;;
20739;SDS011;10530;49.968;19.844;2023-04-25T01:34:28;11.70;;;5.17;;
20739;SDS011;10530;49.968;19.844;2023-04-25T01:39:32;11.88;;;5.30;;
20739;SDS011;10530;49.968;19.844;2023-04-25T01:44:34;13.82;;;5.47;;
20739;SDS011;10530;49.968;19.844;2023-04-25T01:49:39;13.15;;;5.90;;
20739;SDS011;10530;49.968;19.844;2023-04-25T01:54:42;14.10;;;5.30;;
20739;SDS011;10530;49.968;19.844;2023-04-25T01:59:48;15.93;;;5.47;;
20739;SDS011;10530;49.968;19.844;2023-04-25T02:05:10;11.13;;;4.57;;
20739;SDS011;10530;49.968;19.844;2023-04-25T02:10:14;13.02;;;4.95;;
20739;SDS011;10530;49.968;19.844;2023-04-25T02:15:29;13.45;;;5.55;;
20739;SDS011;10530;49.968;19.844;2023-04-25T02:20:43;15.68;;;6.03;;
20739;SDS011;10530;49.968;19.844;2023-04-25T02:25:47;14.07;;;5.73;;
20739;SDS011;10530;49.968;19.844;2023-04-25T02:30:50;17.17;;;6.40;;
20739;SDS011;10530;49.968;19.844;2023-04-25T02:35:54;16.40;;;6.07;;
20739;SDS011;10530;49.968;19.844;2023-04-25T02:40:56;17.70;;;7.07;;
20739;SDS011;10530;49.968;19.844;2023-04-25T02:46:00;19.00;;;7.18;;
20739;SDS011;10530;49.968;19.844;2023-04-25T02:51:03;14.83;;;6.10;;
20739;SDS011;10530;49.968;19.844;2023-04-25T02:56:06;12.63;;;4.68;;
20739;SDS011;10530;49.968;19.844;2023-04-25T03:01:08;15.82;;;7.05;;
20739;SDS011;10530;49.968;19.844;2023-04-25T03:06:11;15.40;;;6.47;;
20739;SDS011;10530;49.968;19.844;2023-04-25T03:11:14;17.50;;;7.10;;
20739;SDS011;10530;49.968;19.844;2023-04-25T03:16:17;18.30;;;6.63;;
20739;SDS011;10530;49.968;19.844;2023-04-25T03:21:20;17.55;;;7.13;;
20739;SDS011;10530;49.968;19.844;2023-04-25T03:26:23;13.85;;;5.03;;
20739;SDS011;10530;49.968;19.844;2023-04-25T03:31:26;18.40;;;7.63;;
20739;SDS011;10530;49.968;19.844;2023-04-25T03:36:28;14.77;;;6.32;;
20739;SDS011;10530;49.968;19.844;2023-04-25T03:41:31;16.13;;;6.97;;
20739;SDS011;10530;49.968;19.844;2023-04-25T03:46:38;14.23;;;6.75;;
20739;SDS011;10530;49.968;19.844;2023-04-25T03:51:41;16.90;;;6.95;;
20739;SDS011;10530;49.968;19.844;2023-04-25T03:56:44;14.30;;;5.70;;
20739;SDS011;10530;49.968;19.844;2023-04-25T04:01:53;15.13;;;6.75;;
20739;SDS011;10530;49.968;19.844;2023-04-25T04:06:57;14.63;;;6.90;;
20739;SDS011;10530;49.968;19.844;2023-04-25T04:12:02;12.15;;;5.60;;
20739;SDS011;10530;49.968;19.844;2023-04-25T04:17:06;15.40;;;6.55;;
20739;SDS011;10530;49.968;19.844;2023-04-25T04:22:09;18.60;;;8.02;;
20739;SDS011;10530;49.968;19.844;2023-04-25T04:27:14;17.00;;;7.05;;
20739;SDS011;10530;49.968;19.844;2023-04-25T04:32:25;19.73;;;8.27;;
20739;SDS011;10530;49.968;19.844;2023-04-25T04:37:30;16.00;;;6.25;;
20739;SDS011;10530;49.968;19.844;2023-04-25T04:42:33;15.55;;;6.13;;
20739;SDS011;10530;49.968;19.844;2023-04-25T04:48:05;11.35;;;5.28;;
20739;SDS011;10530;49.968;19.844;2023-04-25T04:53:28;13.18;;;6.07;;
20739;SDS011;10530;49.968;19.844;2023-04-25T04:58:30;14.50;;;6.97;;
20739;SDS011;10530;49.968;19.844;2023-04-25T05:03:43;11.90;;;4.75;;
20739;SDS011;10530;49.968;19.844;2023-04-25T05:08:59;12.70;;;5.85;;
20739;SDS011;10530;49.968;19.844;2023-04-25T05:14:16;15.10;;;6.63;;
20739;SDS011;10530;49.968;19.844;2023-04-25T05:19:19;14.05;;;5.95;;
20739;SDS011;10530;49.968;19.844;2023-04-25T05:24:46;13.20;;;6.03;;
20739;SDS011;10530;49.968;19.844;2023-04-25T05:30:25;13.48;;;6.13;;
20739;SDS011;10530;49.968;19.844;2023-04-25T05:35:57;13.80;;;6.05;;
20739;SDS011;10530;49.968;19.844;2023-04-25T05:41:01;13.60;;;6.07;;
20739;SDS011;10530;49.968;19.844;2023-04-25T05:46:20;10.75;;;5.22;;
20739;SDS011;10530;49.968;19.844;2023-04-25T05:51:39;10.43;;;5.10;;
20739;SDS011;10530;49.968;19.844;2023-04-25T05:57:07;13.65;;;5.85;;
20739;SDS011;10530;49.968;19.844;2023-04-25T06:02:10;15.38;;;6.30;;
20739;SDS011;10530;49.968;19.844;2023-04-25T06:07:13;10.70;;;5.60;;
20739;SDS011;10530;49.968;19.844;2023-04-25T06:12:16;8.50;;;3.25;;
20739;SDS011;10530;49.968;19.844;2023-04-25T06:17:20;12.83;;;5.67;;
20739;SDS011;10530;49.968;19.844;2023-04-25T06:22:24;12.98;;;5.60;;
20739;SDS011;10530;49.968;19.844;2023-04-25T06:27:28;12.63;;;5.32;;
20739;SDS011;10530;49.968;19.844;2023-04-25T06:32:31;11.88;;;5.22;;
20739;SDS011;10530;49.968;19.844;2023-04-25T06:37:34;13.98;;;5.38;;
20739;SDS011;10530;49.968;19.844;2023-04-25T06:42:38;15.83;;;5.83;;
20739;SDS011;10530;49.968;19.844;2023-04-25T06:47:59;11.95;;;5.32;;
20739;SDS011;10530;49.968;19.844;2023-04-25T06:53:02;14.15;;;5.65;;
20739;SDS011;10530;49.968;19.844;2023-04-25T06:58:05;9.95;;;4.53;;
20739;SDS011;10530;49.968;19.844;2023-04-25T07:03:35;14.35;;;6.10;;
20739;SDS011;10530;49.968;19.844;2023-04-25T07:08:45;15.23;;;5.93;;
20739;SDS011;10530;49.968;19.844;2023-04-25T07:13:48;10.13;;;4.20;;
20739;SDS011;10530;49.968;19.844;2023-04-25T07:18:51;10.57;;;4.32;;
20739;SDS011;10530;49.968;19.844;2023-04-25T07:23:54;10.50;;;4.80;;
20739;SDS011;10530;49.968;19.844;2023-04-25T07:29:02;14.18;;;4.97;;
20739;SDS011;10530;49.968;19.844;2023-04-25T07:34:05;12.93;;;4.70;;
20739;SDS011;10530;49.968;19.844;2023-04-25T07:39:09;9.77;;;4.22;;
20739;SDS011;10530;49.968;19.844;2023-04-25T07:44:13;8.73;;;4.43;;
20739;SDS011;10530;49.968;19.844;2023-04-25T07:49:16;12.23;;;4.60;;
20739;SDS011;10530;49.968;19.844;2023-04-25T07:54:19;12.43;;;4.85;;
20739;SDS011;10530;49.968;19.844;2023-04-25T07:59:28;11.33;;;4.00;;
20739;SDS011;10530;49.968;19.844;2023-04-25T08:04:34;8.60;;;4.30;;
20739;SDS011;10530;49.968;19.844;2023-04-25T08:09:39;9.68;;;4.68;;
20739;SDS011;10530;49.968;19.844;2023-04-25T08:14:49;11.30;;;4.72;;
20739;SDS011;10530;49.968;19.844;2023-04-25T08:19:52;10.90;;;4.45;;
20739;SDS011;10530;49.968;19.844;2023-04-25T08:25:02;12.63;;;5.30;;
20739;SDS011;10530;49.968;19.844;2023-04-25T08:30:07;9.90;;;4.13;;
20739;SDS011;10530;49.968;19.844;2023-04-25T08:35:12;7.25;;;3.28;;
20739;SDS011;10530;49.968;19.844;2023-04-25T08:40:16;8.15;;;3.10;;
20739;SDS011;10530;49.968;19.844;2023-04-25T08:45:39;6.90;;;3.10;;
20739;SDS011;10530;49.968;19.844;2023-04-25T08:50:51;7.83;;;3.70;;
20739;SDS011;10530;49.968;19.844;2023-04-25T08:55:56;7.85;;;3.53;;
20739;SDS011;10530;49.968;19.844;2023-04-25T09:01:01;7.43;;;2.67;;
20739;SDS011;10530;49.968;19.844;2023-04-25T09:06:12;7.05;;;2.72;;
20739;SDS011;10530;49.968;19.844;2023-04-25T09:11:17;7.40;;;3.35;;
20739;SDS011;10530;49.968;19.844;2023-04-25T09:16:25;7.80;;;2.60;;
20739;SDS011;10530;49.968;19.844;2023-04-25T09:21:59;8.13;;;3.50;;
20739;SDS011;10530;49.968;19.844;2023-04-25T09:27:04;9.35;;;3.20;;
20739;SDS011;10530;49.968;19.844;2023-04-25T09:32:17;8.13;;;3.70;;
20739;SDS011;10530;49.968;19.844;2023-04-25T09:37:23;7.03;;;3.22;;
20739;SDS011;10530;49.968;19.844;2023-04-25T09:42:48;8.07;;;2.30;;
20739;SDS011;10530;49.968;19.844;2023-04-25T09:47:52;5.65;;;2.58;;
20739;SDS011;10530;49.968;19.844;2023-04-25T09:53:05;6.38;;;2.60;;
20739;SDS011;10530;49.968;19.844;2023-04-25T09:58:29;9.40;;;3.42;;
20739;SDS011;10530;49.968;19.844;2023-04-25T10:03:35;6.50;;;2.85;;
20739;SDS011;10530;49.968;19.844;2023-04-25T10:09:11;6.17;;;3.30;;
20739;SDS011;10530;49.968;19.844;2023-04-25T10:14:15;7.32;;;3.30;;
20739;SDS011;10530;49.968;19.844;2023-04-25T10:19:22;6.32;;;3.28;;
20739;SDS011;10530;49.968;19.844;2023-04-25T10:24:26;6.00;;;3.30;;
20739;SDS011;10530;49.968;19.844;2023-04-25T10:29:29;7.28;;;3.13;;
20739;SDS011;10530;49.968;19.844;2023-04-25T10:34:39;8.87;;;3.47;;
20739;SDS011;10530;49.968;19.844;2023-04-25T10:39:44;7.20;;;3.20;;
20739;SDS011;10530;49.968;19.844;2023-04-25T10:45:01;6.63;;;2.95;;
20739;SDS011;10530;49.968;19.844;2023-04-25T10:50:09;6.53;;;2.90;;
20739;SDS011;10530;49.968;19.844;2023-04-25T10:55:13;5.88;;;2.75;;
20739;SDS011;10530;49.968;19.844;2023-04-25T11:00:17;5.97;;;2.40;;
20739;SDS011;10530;49.968;19.844;2023-04-25T11:10:58;6.93;;;2.70;;
20739;SDS011;10530;49.968;19.844;2023-04-25T11:16:01;7.25;;;2.50;;
20739;SDS011;10530;49.968;19.844;2023-04-25T11:21:14;5.60;;;2.70;;
20739;SDS011;10530;49.968;19.844;2023-04-25T11:26:19;5.73;;;2.63;;
20739;SDS011;10530;49.968;19.844;2023-04-25T11:31:24;6.90;;;2.70;;
20739;SDS011;10530;49.968;19.844;2023-04-25T11:36:27;5.55;;;2.65;;
20739;SDS011;10530;49.968;19.844;2023-04-25T11:41:30;6.00;;;2.60;;
20739;SDS011;10530;49.968;19.844;2023-04-25T11:46:34;6.20;;;2.70;;
20739;SDS011;10530;49.968;19.844;2023-04-25T11:51:40;7.23;;;3.47;;
20739;SDS011;10530;49.968;19.844;2023-04-25T11:56:46;6.55;;;3.15;;
20739;SDS011;10530;49.968;19.844;2023-04-25T12:01:49;7.75;;;3.45;;
20739;SDS011;10530;49.968;19.844;2023-04-25T12:06:53;9.05;;;3.20;;
20739;SDS011;10530;49.968;19.844;2023-04-25T12:11:58;7.75;;;3.70;;
20739;SDS011;10530;49.968;19.844;2023-04-25T12:17:05;8.53;;;3.70;;
20739;SDS011;10530;49.968;19.844;2023-04-25T12:22:21;6.82;;;3.47;;
20739;SDS011;10530;49.968;19.844;2023-04-25T12:27:26;6.85;;;3.33;;
20739;SDS011;10530;49.968;19.844;2023-04-25T12:32:30;8.15;;;3.95;;
20739;SDS011;10530;49.968;19.844;2023-04-25T12:37:33;6.70;;;3.08;;
20739;SDS011;10530;49.968;19.844;2023-04-25T12:42:36;8.00;;;3.77;;
20739;SDS011;10530;49.968;19.844;2023-04-25T12:47:39;7.82;;;3.65;;
20739;SDS011;10530;49.968;19.844;2023-04-25T12:52:42;11.55;;;3.90;;
20739;SDS011;10530;49.968;19.844;2023-04-25T12:57:45;10.90;;;4.45;;
20739;SDS011;10530;49.968;19.844;2023-04-25T13:02:48;10.55;;;4.00;;
20739;SDS011;10530;49.968;19.844;2023-04-25T13:07:51;10.27;;;4.20;;
20739;SDS011;10530;49.968;19.844;2023-04-25T13:12:54;9.15;;;4.25;;
20739;SDS011;10530;49.968;19.844;2023-04-25T13:17:57;9.75;;;4.53;;
20739;SDS011;10530;49.968;19.844;2023-04-25T13:23:00;9.52;;;3.90;;
20739;SDS011;10530;49.968;19.844;2023-04-25T13:28:04;10.82;;;3.60;;
20739;SDS011;10530;49.968;19.844;2023-04-25T13:33:07;7.40;;;3.57;;
20739;SDS011;10530;49.968;19.844;2023-04-25T13:38:10;7.43;;;3.25;;
20739;SDS011;10530;49.968;19.844;2023-04-25T13:43:12;8.52;;;3.70;;
20739;SDS011;10530;49.968;19.844;2023-04-25T13:48:15;9.80;;;4.15;;
20739;SDS011;10530;49.968;19.844;2023-04-25T13:53:19;10.02;;;4.30;;
20739;SDS011;10530;49.968;19.844;2023-04-25T13:58:23;7.93;;;4.00;;
20739;SDS011;10530;49.968;19.844;2023-04-25T14:03:26;10.43;;;4.68;;
20739;SDS011;10530;49.968;19.844;2023-04-25T14:08:29;10.40;;;4.43;;
20739;SDS011;10530;49.968;19.844;2023-04-25T14:13:32;10.55;;;4.70;;
20739;SDS011;10530;49.968;19.844;2023-04-25T14:18:34;8.77;;;4.47;;
20739;SDS011;10530;49.968;19.844;2023-04-25T14:23:37;10.80;;;4.53;;
20739;SDS011;10530;49.968;19.844;2023-04-25T14:28:40;9.32;;;4.57;;
20739;SDS011;10530;49.968;19.844;2023-04-25T14:33:43;9.00;;;4.13;;
20739;SDS011;10530;49.968;19.844;2023-04-25T14:38:46;11.65;;;4.55;;
20739;SDS011;10530;49.968;19.844;2023-04-25T14:43:49;8.27;;;3.90;;
20739;SDS011;10530;49.968;19.844;2023-04-25T14:48:52;9.83;;;4.37;;
20739;SDS011;10530;49.968;19.844;2023-04-25T14:53:58;12.85;;;4.38;;
20739;SDS011;10530;49.968;19.844;2023-04-25T14:59:00;13.68;;;5.25;;
20739;SDS011;10530;49.968;19.844;2023-04-25T15:04:03;11.85;;;4.95;;
20739;SDS011;10530;49.968;19.844;2023-04-25T15:09:07;13.02;;;5.13;;
20739;SDS011;10530;49.968;19.844;2023-04-25T15:14:10;16.17;;;5.53;;
20739;SDS011;10530;49.968;19.844;2023-04-25T15:19:13;44.35;;;13.32;;
20739;SDS011;10530;49.968;19.844;2023-04-25T15:24:17;52.55;;;14.25;;
20739;SDS011;10530;49.968;19.844;2023-04-25T15:29:20;31.10;;;8.90;;
20739;SDS011;10530;49.968;19.844;2023-04-25T15:34:23;26.83;;;7.22;;
20739;SDS011;10530;49.968;19.844;2023-04-25T15:39:26;19.07;;;7.00;;
20739;SDS011;10530;49.968;19.844;2023-04-25T15:44:29;20.17;;;6.35;;
20739;SDS011;10530;49.968;19.844;2023-04-25T15:49:31;22.02;;;6.70;;
20739;SDS011;10530;49.968;19.844;2023-04-25T15:54:34;9.88;;;4.40;;
20739;SDS011;10530;49.968;19.844;2023-04-25T15:59:37;5.90;;;2.90;;
20739;SDS011;10530;49.968;19.844;2023-04-25T16:04:40;5.83;;;3.00;;
20739;SDS011;10530;49.968;19.844;2023-04-25T16:09:43;6.88;;;3.28;;
20739;SDS011;10530;49.968;19.844;2023-04-25T16:14:47;5.50;;;2.90;;
20739;SDS011;10530;49.968;19.844;2023-04-25T16:19:50;8.68;;;3.10;;
20739;SDS011;10530;49.968;19.844;2023-04-25T16:24:53;8.40;;;3.30;;
20739;SDS011;10530;49.968;19.844;2023-04-25T16:29:56;8.67;;;2.90;;
20739;SDS011;10530;49.968;19.844;2023-04-25T16:34:58;7.78;;;2.90;;
20739;SDS011;10530;49.968;19.844;2023-04-25T16:40:01;9.15;;;3.20;;
20739;SDS011;10530;49.968;19.844;2023-04-25T16:45:06;10.73;;;3.47;;
20739;SDS011;10530;49.968;19.844;2023-04-25T16:50:12;8.27;;;3.20;;
20739;SDS011;10530;49.968;19.844;2023-04-25T16:55:16;8.90;;;3.47;;
20739;SDS011;10530;49.968;19.844;2023-04-25T17:00:19;13.88;;;5.97;;
20739;SDS011;10530;49.968;19.844;2023-04-25T17:05:23;28.35;;;10.98;;
20739;SDS011;10530;49.968;19.844;2023-04-25T17:10:27;9.52;;;3.75;;
20739;SDS011;10530;49.968;19.844;2023-04-25T17:15:30;8.82;;;3.67;;
20739;SDS011;10530;49.968;19.844;2023-04-25T17:20:35;9.53;;;3.30;;
20739;SDS011;10530;49.968;19.844;2023-04-25T17:25:38;8.50;;;3.95;;
20739;SDS011;10530;49.968;19.844;2023-04-25T17:30:41;8.68;;;3.53;;
20739;SDS011;10530;49.968;19.844;2023-04-25T17:35:45;8.50;;;3.90;;
20739;SDS011;10530;49.968;19.844;2023-04-25T17:40:48;8.52;;;3.78;;
20739;SDS011;10530;49.968;19.844;2023-04-25T17:45:51;7.13;;;3.30;;
20739;SDS011;10530;49.968;19.844;2023-04-25T17:50:54;7.47;;;3.13;;
20739;SDS011;10530;49.968;19.844;2023-04-25T17:55:57;9.75;;;3.53;;
20739;SDS011;10530;49.968;19.844;2023-04-25T18:01:00;8.38;;;3.35;;
20739;SDS011;10530;49.968;19.844;2023-04-25T18:06:05;8.13;;;4.07;;
20739;SDS011;10530;49.968;19.844;2023-04-25T18:11:08;9.73;;;4.30;;
20739;SDS011;10530;49.968;19.844;2023-04-25T18:16:10;8.45;;;3.55;;
20739;SDS011;10530;49.968;19.844;2023-04-25T18:21:13;9.93;;;3.60;;
20739;SDS011;10530;49.968;19.844;2023-04-25T18:26:17;10.15;;;4.18;;
20739;SDS011;10530;49.968;19.844;2023-04-25T18:31:21;9.45;;;4.13;;
20739;SDS011;10530;49.968;19.844;2023-04-25T18:36:26;8.40;;;4.07;;
20739;SDS011;10530;49.968;19.844;2023-04-25T18:41:29;8.82;;;3.88;;
20739;SDS011;10530;49.968;19.844;2023-04-25T18:46:52;8.75;;;3.92;;
20739;SDS011;10530;49.968;19.844;2023-04-25T18:51:56;12.48;;;3.72;;
20739;SDS011;10530;49.968;19.844;2023-04-25T18:56:58;11.18;;;4.35;;
20739;SDS011;10530;49.968;19.844;2023-04-25T19:02:02;10.03;;;4.27;;
20739;SDS011;10530;49.968;19.844;2023-04-25T19:07:06;11.60;;;4.38;;
20739;SDS011;10530;49.968;19.844;2023-04-25T19:12:09;11.55;;;4.97;;
20739;SDS011;10530;49.968;19.844;2023-04-25T19:17:12;13.10;;;4.72;;
20739;SDS011;10530;49.968;19.844;2023-04-25T19:22:15;13.05;;;4.47;;
20739;SDS011;10530;49.968;19.844;2023-04-25T19:27:18;9.13;;;3.97;;
20739;SDS011;10530;49.968;19.844;2023-04-25T19:32:20;17.73;;;5.60;;
20739;SDS011;10530;49.968;19.844;2023-04-25T19:37:23;10.35;;;4.60;;
20739;SDS011;10530;49.968;19.844;2023-04-25T19:42:26;12.80;;;4.43;;
20739;SDS011;10530;49.968;19.844;2023-04-25T19:47:29;14.05;;;5.18;;
20739;SDS011;10530;49.968;19.844;2023-04-25T19:52:32;10.73;;;4.80;;
20739;SDS011;10530;49.968;19.844;2023-04-25T19:57:36;14.35;;;6.03;;
20739;SDS011;10530;49.968;19.844;2023-04-25T20:02:39;15.20;;;6.18;;
20739;SDS011;10530;49.968;19.844;2023-04-25T20:07:44;15.35;;;6.60;;
20739;SDS011;10530;49.968;19.844;2023-04-25T20:12:47;19.85;;;7.90;;
20739;SDS011;10530;49.968;19.844;2023-04-25T20:17:50;17.60;;;7.93;;
20739;SDS011;10530;49.968;19.844;2023-04-25T20:22:53;17.52;;;7.70;;
20739;SDS011;10530;49.968;19.844;2023-04-25T20:27:56;16.48;;;8.00;;
20739;SDS011;10530;49.968;19.844;2023-04-25T20:33:00;18.85;;;7.63;;
20739;SDS011;10530;49.968;19.844;2023-04-25T20:38:03;19.67;;;8.60;;
20739;SDS011;10530;49.968;19.844;2023-04-25T20:43:06;22.07;;;8.77;;
20739;SDS011;10530;49.968;19.844;2023-04-25T20:48:12;24.90;;;9.65;;
20739;SDS011;10530;49.968;19.844;2023-04-25T20:53:15;22.35;;;9.20;;
20739;SDS011;10530;49.968;19.844;2023-04-25T20:58:17;21.45;;;8.93;;
20739;SDS011;10530;49.968;19.844;2023-04-25T21:03:21;20.83;;;9.20;;
20739;SDS011;10530;49.968;19.844;2023-04-25T21:08:24;23.63;;;9.50;;
20739;SDS011;10530;49.968;19.844;2023-04-25T21:13:27;23.92;;;9.75;;
20739;SDS011;10530;49.968;19.844;2023-04-25T21:18:30;20.40;;;8.85;;
20739;SDS011;10530;49.968;19.844;2023-04-25T21:23:35;20.02;;;9.10;;
20739;SDS011;10530;49.968;19.844;2023-04-25T21:28:38;25.95;;;10.05;;
20739;SDS011;10530;49.968;19.844;2023-04-25T21:33:41;19.30;;;8.80;;
20739;SDS011;10530;49.968;19.844;2023-04-25T21:38:43;19.45;;;8.25;;
20739;SDS011;10530;49.968;19.844;2023-04-25T21:43:46;19.80;;;8.70;;
20739;SDS011;10530;49.968;19.844;2023-04-25T21:48:49;20.08;;;8.52;;
20739;SDS011;10530;49.968;19.844;2023-04-25T21:53:52;23.50;;;8.85;;
20739;SDS011;10530;49.968;19.844;2023-04-25T21:58:55;21.90;;;8.80;;
20739;SDS011;10530;49.968;19.844;2023-04-25T22:03:58;19.60;;;7.63;;
20739;SDS011;10530;49.968;19.844;2023-04-25T22:09:01;24.08;;;7.85;;
20739;SDS011;10530;49.968;19.844;2023-04-25T22:14:05;20.90;;;7.65;;
20739;SDS011;10530;49.968;19.844;2023-04-25T22:19:08;15.48;;;6.90;;
20739;SDS011;10530;49.968;19.844;2023-04-25T22:24:12;16.03;;;5.53;;
20739;SDS011;10530;49.968;19.844;2023-04-25T22:29:14;12.65;;;4.28;;
20739;SDS011;10530;49.968;19.844;2023-04-25T22:34:17;15.75;;;6.05;;
20739;SDS011;10530;49.968;19.844;2023-04-25T22:39:20;12.60;;;4.65;;
20739;SDS011;10530;49.968;19.844;2023-04-25T22:44:23;9.25;;;4.25;;
20739;SDS011;10530;49.968;19.844;2023-04-25T22:49:25;10.27;;;3.67;;
20739;SDS011;10530;49.968;19.844;2023-04-25T22:54:28;13.52;;;4.10;;
20739;SDS011;10530;49.968;19.844;2023-04-25T22:59:31;11.95;;;4.03;;
20739;SDS011;10530;49.968;19.844;2023-04-25T23:04:34;10.00;;;3.58;;
20739;SDS011;10530;49.968;19.844;2023-04-25T23:09:37;8.10;;;3.97;;
20739;SDS011;10530;49.968;19.844;2023-04-25T23:14:40;9.60;;;3.93;;
20739;SDS011;10530;49.968;19.844;2023-04-25T23:19:43;9.55;;;3.53;;
20739;SDS011;10530;49.968;19.844;2023-04-25T23:24:47;9.00;;;3.13;;
20739;SDS011;10530;49.968;19.844;2023-04-25T23:29:50;7.45;;;2.90;;
20739;SDS011;10530;49.968;19.844;2023-04-25T23:34:55;7.45;;;2.97;;
20739;SDS011;10530;49.968;19.844;2023-04-25T23:39:58;8.90;;;3.20;;
20739;SDS011;10530;49.968;19.844;2023-04-25T23:45:01;12.48;;;3.03;;
20739;SDS011;10530;49.968;19.844;2023-04-25T23:50:06;10.10;;;2.95;;
20739;SDS011;10530;49.968;19.844;2023-04-25T23:55:09;10.95;;;3.13;;
